»·PEaware :: PRD69 KLAS-KMRY

PRD69 :: KLAS-KMRY

FLIGHT INFORMATION

Flight Status: Arrived
Operator: Unknown
More flights by this operator :: More flights under this callsign
Pilot: Ryan B. (8502)
Aircraft: BEECH AIRCRAFT BEECH AIRLINER
(B190)
More flights by this aircraft type
Origin: KLAS McCarran Intl
United States
Destination: KMRY Monterey Peninsula
United States
More flights between these airports :: More routes between these airports
Route: +SNS
File this flight plan on PilotEdge
Remarks:
Altitude:
(Current/Filed)
24,000ft
Speed:
(Current/Filed)
220kts
Departed: 17-Apr-20 08:17 PM
Arrived: 17-Apr-20 09:51 PM
Distance/Time
Traveled:
325nm/1:33
Distance/Time
To Go:
Arrived

Flight Plot

Page will automatically refresh every two minutes.

Flight plan parsing failed; only flown route is shown


Map Options




Map Legend


Flown Route
Filed Route
Departure Airport
Arrival Airport
Navaid (VOR, NDB)
Fix

Horizontal Profiles

Position Reports

Time Latitude Longitude Heading Altitude Ground
Speed
17-Apr-20 19:57 36.080730 -115.171084 269 2171ft 0kts
17-Apr-20 19:58 36.080730 -115.171084 269 2171ft 0kts
17-Apr-20 19:59 36.080730 -115.171084 269 2171ft 0kts
17-Apr-20 20:00 36.080730 -115.171084 269 2171ft 0kts
17-Apr-20 20:01 36.080730 -115.171084 269 2171ft 0kts
17-Apr-20 20:02 36.080730 -115.171084 269 2171ft 0kts
17-Apr-20 20:03 36.080730 -115.171084 269 2171ft 0kts
17-Apr-20 20:04 36.080730 -115.171084 269 2171ft 0kts
17-Apr-20 20:05 36.080730 -115.171084 269 2171ft 0kts
17-Apr-20 20:06 36.080730 -115.171084 269 2171ft 0kts
17-Apr-20 20:07 36.080730 -115.171084 269 2171ft 0kts
17-Apr-20 20:07 36.080730 -115.171084 269 2171ft 0kts
17-Apr-20 20:09 36.080730 -115.171084 269 2171ft 0kts
17-Apr-20 20:10 36.080730 -115.171084 269 2171ft 0kts
17-Apr-20 20:10 36.080730 -115.171084 269 2171ft 0kts
17-Apr-20 20:11 36.080730 -115.171084 269 2171ft 0kts
17-Apr-20 20:13 36.081456 -115.170689 89 2169ft 15kts
17-Apr-20 20:13 36.084063 -115.167697 23 2157ft 23kts
17-Apr-20 20:14 36.090511 -115.164008 24 2129ft 27kts
17-Apr-20 20:15 36.097333 -115.160087 25 2099ft 26kts
17-Apr-20 20:16 36.097369 -115.157741 205 2092ft 65kts
17-Apr-20 20:17 36.063222 -115.175701 201 3260ft 170kts
17-Apr-20 20:18 36.016629 -115.199120 201 5157ft 184kts
17-Apr-20 20:19 35.968738 -115.223768 201 6946ft 192kts
17-Apr-20 20:20 35.931794 -115.277609 241 7799ft 225kts
17-Apr-20 20:21 35.902520 -115.347004 241 9202ft 231kts
17-Apr-20 20:22 35.872678 -115.417408 241 10597ft 235kts
17-Apr-20 20:23 35.845413 -115.490236 274 11996ft 235kts
17-Apr-20 20:24 35.868900 -115.564062 293 13422ft 232kts
17-Apr-20 20:25 35.894712 -115.636351 293 14822ft 229kts
17-Apr-20 20:26 35.920822 -115.709064 292 16247ft 224kts
17-Apr-20 20:27 35.945667 -115.778364 292 17562ft 221kts
17-Apr-20 20:28 35.970643 -115.848172 291 18747ft 224kts
17-Apr-20 20:29 35.995903 -115.918939 291 19795ft 227kts
17-Apr-20 20:30 36.021531 -115.990920 291 20738ft 229kts
17-Apr-20 20:31 36.067369 -116.046339 320 21536ft 236kts
17-Apr-20 20:32 36.119491 -116.096125 320 22265ft 238kts
17-Apr-20 20:33 36.172099 -116.145982 320 22895ft 240kts
17-Apr-20 20:34 36.225258 -116.196387 320 23472ft 241kts
17-Apr-20 20:35 36.278751 -116.247207 320 23954ft 245kts
17-Apr-20 20:36 36.334770 -116.300532 320 23968ft 261kts
17-Apr-20 20:37 36.393340 -116.356358 320 23966ft 270kts
17-Apr-20 20:38 36.453326 -116.413655 320 23966ft 273kts
17-Apr-20 20:39 36.513733 -116.471463 320 23965ft 275kts
17-Apr-20 20:40 36.574588 -116.529824 320 23965ft 276kts
17-Apr-20 20:41 36.635536 -116.588398 320 23965ft 277kts
17-Apr-20 20:42 36.696430 -116.647038 320 23965ft 277kts
17-Apr-20 20:43 36.757496 -116.705964 319 23967ft 277kts
17-Apr-20 20:44 36.817223 -116.766435 316 23967ft 277kts
17-Apr-20 20:45 36.874650 -116.830719 315 23967ft 277kts
17-Apr-20 20:46 36.931681 -116.894832 315 23967ft 277kts
17-Apr-20 20:47 36.988931 -116.959298 315 23967ft 277kts
17-Apr-20 20:48 37.045903 -117.023673 315 23967ft 275kts
17-Apr-20 20:49 37.101471 -117.086617 315 23966ft 273kts
17-Apr-20 20:50 37.157338 -117.149964 315 23965ft 270kts
17-Apr-20 20:51 37.212669 -117.212810 315 23965ft 268kts
17-Apr-20 20:52 37.267772 -117.275556 315 23965ft 267kts
17-Apr-20 20:53 37.299818 -117.354442 278 23972ft 261kts
17-Apr-20 20:54 37.308564 -117.444975 275 23987ft 261kts
17-Apr-20 20:55 37.315761 -117.535604 275 24005ft 261kts
17-Apr-20 20:56 37.322752 -117.626398 275 24018ft 261kts
17-Apr-20 20:57 37.329734 -117.718302 274 24021ft 261kts
17-Apr-20 20:58 37.336367 -117.811363 266 24015ft 261kts
17-Apr-20 20:59 37.322961 -117.901202 258 24020ft 261kts
17-Apr-20 21:00 37.308567 -117.990507 258 24020ft 262kts
17-Apr-20 21:01 37.293983 -118.080399 258 24019ft 262kts
17-Apr-20 21:02 37.279384 -118.169921 258 24019ft 262kts
17-Apr-20 21:03 37.264742 -118.259249 258 24019ft 262kts
17-Apr-20 21:04 37.249955 -118.349016 258 24019ft 262kts
17-Apr-20 21:05 37.235149 -118.438469 258 24018ft 262kts
17-Apr-20 21:06 37.220299 -118.527725 258 24018ft 262kts
17-Apr-20 21:07 37.205347 -118.617161 258 24050ft 261kts
17-Apr-20 21:08 37.190385 -118.706197 258 24061ft 261kts
17-Apr-20 21:09 37.175323 -118.795447 258 24065ft 262kts
17-Apr-20 21:10 37.160136 -118.884899 258 24074ft 262kts
17-Apr-20 21:11 37.144938 -118.974037 258 24086ft 261kts
17-Apr-20 21:12 37.129778 -119.062567 258 24097ft 260kts
17-Apr-20 21:13 37.114546 -119.151223 258 24067ft 260kts
17-Apr-20 21:14 37.099191 -119.240131 258 24037ft 260kts
17-Apr-20 21:15 37.083868 -119.328355 257 24018ft 259kts
17-Apr-20 21:16 37.068482 -119.416536 257 24018ft 258kts
17-Apr-20 21:17 37.053013 -119.504743 257 23832ft 265kts
17-Apr-20 21:18 37.036748 -119.597163 256 23229ft 277kts
17-Apr-20 21:19 37.019907 -119.692302 255 22621ft 281kts
17-Apr-20 21:20 37.002819 -119.788358 255 22019ft 284kts
17-Apr-20 21:21 36.985553 -119.884942 254 21413ft 286kts
17-Apr-20 21:22 36.968012 -119.982543 254 20802ft 289kts
17-Apr-20 21:23 36.950230 -120.080915 254 20189ft 291kts
17-Apr-20 21:24 36.932184 -120.180235 254 19469ft 296kts
17-Apr-20 21:25 36.913698 -120.281579 254 18656ft 300kts
17-Apr-20 21:26 36.895016 -120.383454 254 17851ft 302kts
17-Apr-20 21:27 36.876191 -120.485591 255 17064ft 303kts
17-Apr-20 21:28 36.857100 -120.588626 255 16272ft 305kts
17-Apr-20 21:29 36.837902 -120.691714 254 15482ft 305kts
17-Apr-20 21:30 36.818534 -120.795205 255 14687ft 306kts
17-Apr-20 21:31 36.799058 -120.898720 255 13891ft 306kts
17-Apr-20 21:32 36.779740 -121.000985 255 13096ft 301kts
17-Apr-20 21:33 36.760566 -121.101751 255 12299ft 295kts
17-Apr-20 21:34 36.741679 -121.200228 256 11560ft 288kts
17-Apr-20 21:35 36.722958 -121.298163 257 10563ft 292kts
17-Apr-20 21:36 36.704046 -121.396243 257 9556ft 287kts
17-Apr-20 21:37 36.693908 -121.493417 268 8544ft 281kts
17-Apr-20 21:38 36.691053 -121.590621 268 7529ft 272kts
17-Apr-20 21:39 36.690963 -121.681151 281 6511ft 255kts
17-Apr-20 21:40 36.705232 -121.767126 282 5511ft 253kts
17-Apr-20 21:41 36.719104 -121.850652 282 4501ft 239kts
17-Apr-20 21:42 36.732506 -121.931180 282 3492ft 231kts
17-Apr-20 21:43 36.745208 -122.007030 282 2480ft 219kts
17-Apr-20 21:44 36.720180 -122.057213 180 2273ft 192kts
17-Apr-20 21:45 36.676315 -122.023154 143 2282ft 188kts
17-Apr-20 21:46 36.636035 -121.984753 129 2313ft 172kts
17-Apr-20 21:47 36.618061 -121.936346 112 1526ft 146kts
17-Apr-20 21:48 36.603399 -121.892883 112 796ft 123kts
17-Apr-20 21:49 36.590541 -121.854831 112 178ft 116kts
17-Apr-20 21:50 36.585775 -121.846533 203 202ft 12kts

Navigation Log

Ident Type
Flight plan parsing failed, navigation log unavailable